Time;durP1;ratioP1;P1;durP2;ratioP2;P2;SDS_P1;SDS_P2;PMS_P1;PMS_P2;Temp;Humidity;BMP_temperature;BMP_pressure;BME280_temperature;BME280_humidity;BME280_pressure;Samples;Min_cycle;Max_cycle;Signal;HPM_P1;HPM_P2
2021/04/03 00:17:21;;;;;;;29.55;21.90;;;;;;;7.53;100.00;99776.45;1771497;79;21528;-85
2021/04/03 00:23:53;;;;;;;33.88;20.92;;;;;;;7.50;100.00;99777.16;1790509;79;21139;-85
2021/04/03 00:26:56;;;;;;;29.23;20.20;;;;;;;7.48;100.00;99777.73;1803957;78;21139;-85
2021/04/03 00:33:48;;;;;;;25.48;18.77;;;;;;;7.50;100.00;99772.78;1788836;79;21219;-86
2021/04/03 00:43:50;;;;;;;24.05;18.02;;;;;;;7.49;100.00;99758.66;1785296;79;21148;-86
2021/04/03 00:50:43;;;;;;;;;;;;;;;7.53;100.00;99760.91;1798785;79;21593;-85
2021/04/03 01:01:31;;;;;;;30.68;20.37;;;;;;;7.49;100.00;99758.17;1790296;79;21156;-86
2021/04/03 01:08:27;;;;;;;32.40;22.17;;;;;;;7.39;100.00;99758.05;1790019;79;21442;-85
2021/04/03 01:15:28;;;;;;;30.17;22.77;;;;;;;7.36;100.00;99747.11;1789781;79;21119;-85
2021/04/03 01:26:23;;;;;;;33.23;22.95;;;;;;;7.36;100.00;99749.24;1791146;79;21092;-85
2021/04/03 01:47:50;;;;;;;31.23;22.98;;;;;;;7.46;100.00;99748.06;1794486;79;21170;-86
2021/04/03 01:57:53;;;;;;;35.17;26.42;;;;;;;7.54;100.00;99740.53;1778095;79;21132;-86
2021/04/03 02:00:50;;;;;;;40.73;27.02;;;;;;;7.60;100.00;99743.59;1791204;79;21590;-86
2021/04/03 02:07:25;;;;;;;32.35;24.70;;;;;;;7.64;100.00;99735.95;1795989;79;21200;-86
2021/04/03 09:46:20;;;;;;;10.45;7.87;;;;;;;4.35;100.00;100164.62;1769364;80;21537;-92
2021/04/03 09:48:51;;;;;;;9.75;6.90;;;;;;;4.45;100.00;100162.81;1760372;80;21164;-93
2021/04/03 09:51:47;;;;;;;12.45;7.22;;;;;;;4.50;100.00;100169.81;1741693;80;21125;-93
2021/04/03 09:54:16;;;;;;;10.23;7.45;;;;;;;4.49;100.00;100175.89;1770829;80;21569;-92
2021/04/03 09:57:13;;;;;;;12.25;6.53;;;;;;;4.53;100.00;100183.80;1789700;78;21152;-92
2021/04/03 09:59:45;;;;;;;7.80;5.80;;;;;;;4.56;100.00;100178.05;1753825;81;21129;-91
2021/04/03 10:02:20;;;;;;;11.85;9.38;;;;;;;4.60;100.00;100179.98;1753726;81;21125;-92
2021/04/03 10:04:55;;;;;;;11.55;7.97;;;;;;;4.69;100.00;100192.33;1756699;81;21135;-94
2021/04/03 10:07:52;;;;;;;9.58;7.75;;;;;;;4.69;100.00;100192.33;1754491;80;22260;-93
2021/04/03 10:10:24;;;;;;;7.65;6.00;;;;;;;4.77;100.00;100193.67;1740595;82;21164;-93
2021/04/03 10:12:54;;;;;;;7.50;5.25;;;;;;;4.76;100.00;100196.69;1717656;82;21155;-92
2021/04/03 10:19:25;;;;;;;6.95;5.10;;;;;;;4.72;100.00;100204.25;1753126;81;21145;-93
2021/04/03 10:21:54;;;;;;;11.35;8.08;;;;;;;4.69;100.00;100203.13;1735110;81;21533;-93
2021/04/03 10:24:30;;;;;;;11.25;8.65;;;;;;;4.69;100.00;100205.23;1768669;79;21744;-93
2021/04/03 10:27:26;;;;;;;11.18;9.20;;;;;;;4.69;100.00;100205.23;1783157;79;21188;-93
2021/04/03 10:29:57;;;;;;;10.32;8.70;;;;;;;4.72;100.00;100216.67;1773718;79;21872;-93
2021/04/03 10:32:27;;;;;;;8.58;6.58;;;;;;;4.78;100.00;100218.08;1731054;81;21136;-93
2021/04/03 10:35:04;;;;;;;9.25;8.13;;;;;;;4.82;100.00;100218.73;1724553;80;21448;-93
2021/04/03 10:37:35;;;;;;;13.50;7.95;;;;;;;4.84;100.00;100233.20;1764976;80;21127;-92
2021/04/03 10:40:07;;;;;;;13.55;7.92;;;;;;;4.85;100.00;100236.59;1751287;81;21173;-93
2021/04/03 10:42:36;;;;;;;11.50;8.88;;;;;;;4.85;100.00;100236.59;1747788;81;21136;-93
2021/04/03 10:45:06;;;;;;;13.65;8.95;;;;;;;4.84;100.00;100249.16;1751389;80;21124;-92
2021/04/03 10:47:34;;;;;;;14.83;11.03;;;;;;;4.79;100.00;100246.83;1731588;81;21270;-92
2021/04/03 10:50:05;;;;;;;14.07;10.63;;;;;;;4.73;100.00;100255.74;1726973;83;21185;-93
2021/04/03 10:53:02;;;;;;;12.20;9.48;;;;;;;4.73;100.00;100239.41;1726836;83;21153;-93
2021/04/03 10:55:38;;;;;;;14.98;9.20;;;;;;;4.73;100.00;100239.41;1697891;84;21168;-93
2021/04/03 10:58:08;;;;;;;22.20;11.08;;;;;;;4.80;100.00;100238.62;1706791;83;21160;-93
2021/04/03 11:00:38;;;;;;;16.90;11.40;;;;;;;4.86;100.00;100242.98;1711132;83;21467;-94
2021/04/03 11:07:31;;;;;;;13.93;9.43;;;;;;;5.00;100.00;100258.12;1699214;83;21673;-90
2021/04/03 11:14:22;;;;;;;13.93;11.18;;;;;;;4.95;100.00;100242.90;1678547;85;21174;-89
2021/04/03 11:21:15;;;;;;;18.95;12.95;;;;;;;5.08;100.00;100260.27;1698491;84;21485;-89
2021/04/03 11:28:07;;;;;;;16.17;10.98;;;;;;;5.11;100.00;100267.82;1700070;82;21090;-87
2021/04/03 11:34:59;;;;;;;17.10;11.10;;;;;;;5.17;100.00;100276.05;1724744;82;21552;-87
2021/04/03 11:41:51;;;;;;;15.15;11.03;;;;;;;5.24;100.00;100289.45;1712994;83;21143;-88
2021/04/03 11:48:09;;;;;;;13.32;10.68;;;;;;;5.33;100.00;100307.43;1716124;81;21163;-87
2021/04/03 11:50:59;;;;;;;14.60;10.35;;;;;;;5.31;100.00;100302.36;1739966;82;21372;-87
2021/04/03 11:57:53;;;;;;;15.48;12.85;;;;;;;5.27;100.00;100311.19;1735759;80;21182;-88
2021/04/03 12:04:44;;;;;;;16.60;10.75;;;;;;;5.32;100.00;100330.30;1709871;83;21156;-87
2021/04/03 12:11:37;;;;;;;15.90;12.82;;;;;;;5.33;100.00;100332.78;1773380;81;21187;-86
2021/04/03 12:17:55;;;;;;;12.95;10.78;;;;;;;5.53;100.00;100335.49;1726940;82;21606;-86
2021/04/03 12:24:47;;;;;;;15.03;12.23;;;;;;;5.61;100.00;100328.60;1741748;82;21552;-86
2021/04/03 12:31:39;;;;;;;13.35;11.35;;;;;;;5.71;100.00;100325.48;1706730;82;21021;-87
2021/04/03 12:38:31;;;;;;;14.15;10.28;;;;;;;5.80;100.00;100343.02;1713226;82;21143;-86
2021/04/03 12:45:23;;;;;;;9.30;7.58;;;;;;;5.80;100.00;100348.19;1739627;82;21175;-87
2021/04/03 13:08:23;;;;;;;7.17;6.33;;;;;;;6.07;100.00;100363.83;1744705;82;21219;-89
2021/04/03 13:10:51;;;;;;;6.70;5.80;;;;;;;6.11;100.00;100361.41;1704687;81;21662;-90
2021/04/03 13:13:20;;;;;;;6.62;5.85;;;;;;;6.14;100.00;100370.73;1728698;81;21182;-90
2021/04/03 13:15:51;;;;;;;8.08;7.22;;;;;;;6.14;100.00;100368.15;1728562;81;21226;-89
2021/04/03 13:18:19;;;;;;;7.67;6.58;;;;;;;6.15;100.00;100372.40;1759960;81;21084;-90
2021/04/03 13:21:17;;;;;;;9.08;6.83;;;;;;;6.15;100.00;100364.64;1760020;81;21159;-89
2021/04/03 13:23:46;;;;;;;7.60;6.80;;;;;;;6.18;100.00;100374.81;1759981;81;21368;-90
2021/04/03 13:26:15;;;;;;;9.33;7.10;;;;;;;6.20;100.00;100372.13;1759985;81;21182;-90
2021/04/03 13:28:47;;;;;;;11.95;6.47;;;;;;;6.22;100.00;100381.45;1727542;81;21195;-90
2021/04/03 13:31:16;;;;;;;11.08;6.67;;;;;;;6.25;100.00;100381.27;1725626;81;21259;-90
2021/04/03 13:33:44;;;;;;;12.18;6.47;;;;;;;6.30;100.00;100383.10;1728803;81;21179;-91
2021/04/03 13:36:12;;;;;;;11.03;6.70;;;;;;;6.36;100.00;100370.27;1759813;81;22305;-90
2021/04/03 13:38:40;;;;;;;8.35;7.08;;;;;;;6.44;100.00;100375.80;1755146;80;21178;-91
2021/04/03 13:41:11;;;;;;;8.03;6.20;;;;;;;6.52;100.00;100390.86;1756806;81;21124;-91
2021/04/03 13:43:39;;;;;;;;;;;;;;;6.59;100.00;100386.97;1764412;81;21210;-90
2021/04/03 13:46:07;;;;;;;5.90;5.30;;;;;;;6.67;100.00;100381.77;1765662;81;20476;-90
2021/04/03 13:48:36;;;;;;;8.78;5.12;;;;;;;6.76;100.00;100385.09;1735748;81;21726;-90
2021/04/03 13:51:05;;;;;;;5.78;4.37;;;;;;;6.83;100.00;100385.06;1729868;81;21155;-91
2021/04/03 13:53:34;;;;;;;5.95;4.58;;;;;;;6.88;100.00;100391.25;1759965;81;21167;-90
2021/04/03 14:11:56;;;;;;;5.55;4.45;;;;;;;7.03;100.00;100376.03;1729700;83;21579;-87
2021/04/03 14:14:27;;;;;;;5.47;4.20;;;;;;;7.17;100.00;100376.89;1698059;83;21693;-90
2021/04/03 14:21:07;;;;;;;4.15;3.55;;;;;;;7.31;100.00;100386.36;1723969;81;21206;-90
2021/04/03 14:27:08;;;;;;;3.40;3.10;;;;;;;7.30;100.00;100369.97;1700286;84;21610;-88
2021/04/03 14:29:38;;;;;;;5.10;3.98;;;;;;;7.31;100.00;100366.45;1675758;83;21188;-89
2021/04/03 14:32:07;;;;;;;9.80;6.80;;;;;;;7.33;100.00;100365.90;1729401;83;21130;-91
2021/04/03 14:34:43;;;;;;;3.70;3.00;;;;;;;7.35;100.00;100370.52;1729555;83;21610;-88
2021/04/03 14:41:38;;;;;;;5.60;3.58;;;;;;;7.36;100.00;100375.22;1734568;81;21145;-86
2021/04/03 14:48:31;;;;;;;5.03;3.60;;;;;;;7.34;100.00;100384.40;1700443;84;21200;-91
2021/04/03 14:55:33;;;;;;;7.90;4.20;;;;;;;7.33;100.00;100387.10;1725568;83;21720;-91
2021/04/03 14:58:05;;;;;;;6.60;3.98;;;;;;;7.27;100.00;100397.39;1698599;83;21182;-89
2021/04/03 15:00:34;;;;;;;5.08;3.70;;;;;;;7.20;100.00;100400.83;1687830;83;21117;-92
2021/04/03 15:03:10;;;;;;;57.65;51.58;;;;;;;7.19;100.00;100408.70;1729245;83;21162;-92
2021/04/03 15:05:39;;;;;;;64.67;47.17;;;;;;;7.19;100.00;100412.59;1716640;83;21380;-91
2021/04/03 15:08:37;;;;;;;18.00;16.10;;;;;;;7.18;100.00;100409.16;1716445;83;21254;-89
2021/04/03 15:11:07;;;;;;;74.55;33.92;;;;;;;7.21;100.00;100410.74;1728887;83;21591;-90
2021/04/03 15:13:37;;;;;;;45.28;19.40;;;;;;;7.24;100.00;100410.52;1729098;83;21155;-89
2021/04/03 15:16:06;;;;;;;8.58;7.35;;;;;;;7.26;100.00;100415.97;1728997;83;21237;-90
2021/04/03 15:18:34;;;;;;;34.20;8.58;;;;;;;7.29;100.00;100421.41;1716437;83;21396;-90
2021/04/03 15:24:29;;;;;;;68.37;9.03;;;;;;;7.25;100.00;100423.36;1728737;83;22074;-90
2021/04/03 15:27:04;;;;;;;75.60;7.78;;;;;;;7.31;100.00;100440.76;1729136;83;21194;-90
2021/04/03 15:29:34;;;;;;;50.38;7.05;;;;;;;7.35;100.00;100443.50;1716097;83;21211;-90
2021/04/03 15:32:04;;;;;;;44.58;6.92;;;;;;;7.35;100.00;100446.09;1729223;83;22149;-90
2021/04/03 15:34:33;;;;;;;52.48;6.50;;;;;;;7.36;100.00;100440.83;1716289;83;21582;-91
2021/04/03 15:37:01;;;;;;;29.82;6.37;;;;;;;7.44;100.00;100450.69;1728987;83;21197;-90
2021/04/03 15:39:29;;;;;;;30.75;5.42;;;;;;;7.50;100.00;100452.88;1716322;83;21163;-90
2021/04/03 15:41:58;;;;;;;29.82;5.25;;;;;;;7.54;100.00;100456.94;1698609;83;21186;-90
2021/04/03 15:44:26;;;;;;;25.30;4.65;;;;;;;7.49;100.00;100460.28;1729106;82;22251;-90
2021/04/03 15:46:54;;;;;;;20.27;4.80;;;;;;;7.40;100.00;100468.67;1727887;81;21201;-90
2021/04/03 15:49:24;;;;;;;8.65;4.65;;;;;;;7.36;100.00;100462.85;1725498;83;21210;-90
2021/04/03 15:51:52;;;;;;;18.85;5.08;;;;;;;7.36;100.00;100462.00;1725267;83;21198;-90
2021/04/03 15:54:21;;;;;;;18.77;5.40;;;;;;;7.39;100.00;100468.30;1726464;81;21234;-90
2021/04/03 15:56:49;;;;;;;25.02;5.40;;;;;;;7.41;100.00;100470.33;1690918;83;22420;-90
2021/04/03 15:59:19;;;;;;;12.25;5.60;;;;;;;7.48;100.00;100474.63;1728935;83;21123;-90
2021/04/03 16:01:47;;;;;;;14.60;5.53;;;;;;;7.52;100.00;100476.93;1729013;83;21135;-90
2021/04/03 16:04:15;;;;;;;13.65;6.37;;;;;;;7.55;100.00;100477.19;1726860;81;21199;-91
2021/04/03 16:06:44;;;;;;;10.40;6.00;;;;;;;7.58;100.00;100470.05;1715866;81;21189;-90
2021/04/03 16:09:13;;;;;;;19.85;7.05;;;;;;;7.61;100.00;100474.67;1672141;83;22295;-89
2021/04/03 16:11:46;;;;;;;24.52;7.10;;;;;;;7.60;100.00;100479.04;1725414;83;21151;-89
2021/04/03 16:14:14;;;;;;;23.22;7.28;;;;;;;7.58;100.00;100479.59;1722065;82;21497;-89
2021/04/03 16:16:44;;;;;;;28.50;6.83;;;;;;;7.55;100.00;100480.63;1729400;82;21187;-90
2021/04/03 16:22:38;;;;;;;20.12;8.73;;;;;;;7.51;100.00;100484.33;1726162;82;21215;-89
2021/04/03 16:25:08;;;;;;;19.50;8.23;;;;;;;7.47;100.00;100485.48;1720542;82;21637;-89
2021/04/03 16:27:37;;;;;;;47.80;12.57;;;;;;;7.42;100.00;100492.69;1670177;83;21590;-89
2021/04/03 16:30:07;;;;;;;51.68;15.88;;;;;;;7.32;100.00;100492.94;1669334;84;21187;-90
2021/04/03 16:32:37;;;;;;;36.15;14.58;;;;;;;7.23;100.00;100495.17;1712355;83;21094;-90
2021/04/03 16:35:07;;;;;;;23.95;11.10;;;;;;;7.18;100.00;100494.61;1714753;83;21557;-90
2021/04/03 16:37:36;;;;;;;41.05;12.05;;;;;;;7.16;100.00;100501.67;1714770;83;21160;-90
2021/04/03 16:40:06;;;;;;;28.23;10.43;;;;;;;7.12;100.00;100499.37;1716542;82;21191;-89
2021/04/03 16:42:35;;;;;;;18.85;8.60;;;;;;;7.06;100.00;100504.45;1726932;82;21159;-90
2021/04/03 16:45:09;;;;;;;9.83;8.13;;;;;;;7.00;100.00;100506.14;1727659;83;21195;-90
2021/04/03 16:47:39;;;;;;;25.75;8.15;;;;;;;6.94;100.00;100510.75;1727643;83;21465;-90
2021/04/03 16:50:09;;;;;;;15.60;6.85;;;;;;;6.89;100.00;100515.39;1727590;83;21198;-89
2021/04/03 16:52:44;;;;;;;15.90;6.35;;;;;;;6.85;100.00;100517.78;1717347;82;21196;-89
2021/04/03 16:55:13;;;;;;;10.35;6.95;;;;;;;6.76;100.00;100528.72;1669306;84;21239;-89
2021/04/03 17:01:44;;;;;;;16.97;7.30;;;;;;;6.52;100.00;100535.73;1705531;83;21582;-89
2021/04/03 17:04:43;;;;;;;19.30;7.50;;;;;;;6.31;100.00;100535.23;1725635;83;21413;-91
2021/04/03 17:07:13;;;;;;;9.25;6.12;;;;;;;6.20;100.00;100541.48;1725546;83;21618;-90
2021/04/03 17:09:42;;;;;;;11.22;6.58;;;;;;;6.12;100.00;100550.52;1673062;83;21116;-90
2021/04/03 17:12:11;;;;;;;8.58;6.45;;;;;;;6.02;100.00;100550.66;1726728;81;21634;-90
2021/04/03 17:14:40;;;;;;;8.58;6.35;;;;;;;5.96;100.00;100556.16;1729029;83;21214;-89
2021/04/03 17:17:09;;;;;;;9.18;6.92;;;;;;;5.84;100.00;100561.56;1729164;81;21139;-90
2021/04/03 17:19:37;;;;;;;118.37;11.25;;;;;;;5.69;100.00;100563.23;1729032;83;21211;-88
2021/04/03 17:22:07;;;;;;;9.55;6.87;;;;;;;5.56;100.00;100568.72;1726926;83;21795;-87
2021/04/03 17:24:36;;;;;;;13.17;7.23;;;;;;;5.46;100.00;100575.67;1725540;83;21182;-87
2021/04/03 17:27:06;;;;;;;15.65;10.80;;;;;;;5.35;100.00;100579.31;1725182;83;21379;-86
2021/04/03 17:29:35;;;;;;;17.62;11.30;;;;;;;5.21;100.00;100580.05;1725380;83;21214;-86
2021/04/03 17:32:04;;;;;;;19.45;12.25;;;;;;;5.05;100.00;100582.14;1710619;83;21264;-87
2021/04/03 17:34:33;;;;;;;28.50;15.40;;;;;;;4.93;100.00;100580.19;1725865;83;21195;-86
2021/04/03 17:37:02;;;;;;;24.43;14.13;;;;;;;4.83;100.00;100598.37;1725333;83;21246;-86
2021/04/03 17:39:31;;;;;;;18.12;11.55;;;;;;;4.75;100.00;100593.59;1726760;83;21637;-86
2021/04/03 17:42:04;;;;;;;17.55;11.03;;;;;;;4.72;100.00;100593.77;1729110;82;21149;-86
2021/04/03 17:44:32;;;;;;;15.95;10.55;;;;;;;4.69;100.00;100591.33;1730290;82;21634;-86
2021/04/03 17:47:00;;;;;;;15.53;9.98;;;;;;;4.64;100.00;100589.45;1728402;82;21649;-87
2021/04/03 17:49:29;;;;;;;12.95;9.25;;;;;;;4.60;100.00;100591.35;1728491;82;21159;-87
2021/04/03 17:52:00;;;;;;;14.05;9.58;;;;;;;4.51;100.00;100594.39;1729092;83;21216;-87
2021/04/03 17:54:30;;;;;;;16.35;9.58;;;;;;;4.41;100.00;100592.27;1727981;83;28814;-86
2021/04/03 17:56:58;;;;;;;12.28;7.87;;;;;;;4.35;100.00;100593.02;1714445;82;21477;-86
2021/04/03 17:59:26;;;;;;;10.72;7.58;;;;;;;4.26;100.00;100594.31;1714570;83;21196;-86
2021/04/03 18:01:54;;;;;;;10.35;6.67;;;;;;;4.18;100.00;100599.00;1714572;82;21224;-87
2021/04/03 18:04:29;;;;;;;12.68;7.72;;;;;;;4.12;100.00;100600.59;1716402;83;22318;-86
2021/04/03 18:06:58;;;;;;;15.63;9.93;;;;;;;4.07;100.00;100605.97;1716371;83;21191;-86
2021/04/03 18:09:28;;;;;;;14.03;10.20;;;;;;;4.04;100.00;100602.23;1698847;83;21202;-86
2021/04/03 18:11:59;;;;;;;12.23;9.05;;;;;;;3.99;100.00;100605.03;1716182;83;21171;-86
2021/04/03 18:14:28;;;;;;;10.65;7.75;;;;;;;3.91;100.00;100609.28;1728671;83;21134;-86
2021/04/03 18:16:56;;;;;;;11.95;8.18;;;;;;;3.84;100.00;100608.34;1717990;83;22278;-86
2021/04/03 18:19:26;;;;;;;9.38;6.47;;;;;;;3.75;100.00;100613.48;1664008;83;21145;-87
2021/04/03 18:21:56;;;;;;;9.90;5.78;;;;;;;3.71;100.00;100620.52;1729005;83;21136;-86
2021/04/03 18:24:29;;;;;;;8.50;5.85;;;;;;;3.71;100.00;100620.52;1728860;82;21206;-87
2021/04/03 18:27:00;;;;;;;8.65;6.20;;;;;;;3.71;100.00;100612.79;1717656;83;21188;-86
2021/04/03 18:29:28;;;;;;;8.43;6.25;;;;;;;3.70;100.00;100618.84;1714273;83;21605;-86
2021/04/03 18:31:57;;;;;;;7.53;6.15;;;;;;;3.62;100.00;100619.65;1725778;81;21147;-86
2021/04/03 18:34:25;;;;;;;8.83;5.92;;;;;;;3.62;100.00;100619.65;1720733;83;21163;-86
2021/04/03 18:36:55;;;;;;;7.97;5.97;;;;;;;3.59;100.00;100619.78;1727073;83;21195;-86
2021/04/03 18:39:26;;;;;;;10.17;7.53;;;;;;;3.55;100.00;100620.84;1714495;82;21153;-86
2021/04/03 18:41:55;;;;;;;9.23;6.87;;;;;;;3.39;100.00;100626.69;1714467;83;21366;-87
2021/04/03 18:44:23;;;;;;;11.93;7.50;;;;;;;3.39;100.00;100626.69;1714513;83;21192;-86
2021/04/03 18:46:51;;;;;;;13.25;9.18;;;;;;;3.31;100.00;100627.01;1715389;83;21168;-86
2021/04/03 18:49:19;;;;;;;16.05;10.48;;;;;;;3.13;100.00;100636.39;1725147;83;21183;-86
2021/04/03 18:51:48;;;;;;;13.65;9.45;;;;;;;3.13;100.00;100636.39;1726583;82;21150;-86
2021/04/03 18:54:16;;;;;;;12.98;9.08;;;;;;;3.04;100.00;100645.78;1694881;83;21566;-86
2021/04/03 18:56:45;;;;;;;16.65;8.78;;;;;;;2.99;100.00;100651.59;1728710;83;21163;-87
2021/04/03 18:59:14;;;;;;;12.00;7.65;;;;;;;2.94;100.00;100647.08;1728435;83;21159;-86
2021/04/03 19:01:43;;;;;;;11.80;7.92;;;;;;;2.93;100.00;100651.83;1716090;82;21156;-86
2021/04/03 19:04:13;;;;;;;11.40;8.03;;;;;;;2.90;100.00;100652.80;1681594;83;21237;-86
2021/04/03 19:06:42;;;;;;;11.48;8.03;;;;;;;2.89;100.00;100651.59;1666627;83;21383;-86
2021/04/03 19:09:12;;;;;;;11.95;8.85;;;;;;;2.90;100.00;100655.38;1729853;81;21179;-86
2021/04/03 19:11:42;;;;;;;11.88;8.88;;;;;;;2.90;100.00;100657.13;1675951;83;21194;-86
2021/04/03 19:14:10;;;;;;;11.45;8.33;;;;;;;2.91;100.00;100665.23;1674854;83;21670;-86
2021/04/03 19:16:38;;;;;;;13.93;9.03;;;;;;;2.90;100.00;100660.52;1716363;83;21184;-86
2021/04/03 19:19:07;;;;;;;10.88;7.90;;;;;;;2.91;100.00;100666.52;1698600;83;22260;-86
2021/04/03 19:21:36;;;;;;;10.50;7.47;;;;;;;2.88;100.00;100664.91;1729052;83;21197;-86
2021/04/03 19:24:05;;;;;;;12.55;8.40;;;;;;;2.86;100.00;100663.28;1690139;83;21250;-86
2021/04/03 19:26:34;;;;;;;12.82;7.85;;;;;;;2.78;100.00;100665.73;1713569;81;21688;-86
2021/04/03 19:29:02;;;;;;;11.63;8.00;;;;;;;2.78;100.00;100665.73;1699730;83;21226;-86
2021/04/03 19:31:37;;;;;;;13.13;8.83;;;;;;;2.75;100.00;100665.02;1731147;82;22371;-86
2021/04/03 19:34:13;;;;;;;12.70;9.18;;;;;;;2.72;100.00;100658.73;1725300;83;21253;-86
2021/04/03 19:36:42;;;;;;;12.43;9.50;;;;;;;2.71;100.00;100660.45;1700808;82;21170;-86
2021/04/03 19:39:10;;;;;;;12.43;8.55;;;;;;;2.71;100.00;100660.92;1724520;82;21135;-87
2021/04/03 19:41:39;;;;;;;20.92;13.03;;;;;;;2.72;100.00;100654.88;1728050;82;21135;-86
2021/04/03 19:44:07;;;;;;;23.47;14.40;;;;;;;2.73;100.00;100655.23;1693298;82;21480;-86
2021/04/03 19:46:35;;;;;;;22.55;14.45;;;;;;;2.72;100.00;100648.45;1730479;82;21217;-86
2021/04/03 19:49:04;;;;;;;18.02;10.20;;;;;;;2.65;100.00;100652.54;1720575;82;21181;-86
2021/04/03 19:51:33;;;;;;;12.40;8.60;;;;;;;2.54;100.00;100652.16;1697900;82;21179;-86
2021/04/03 19:54:03;;;;;;;19.97;10.57;;;;;;;2.46;100.00;100648.61;1709265;83;21229;-86
2021/04/03 19:56:31;;;;;;;24.90;11.22;;;;;;;2.38;100.00;100664.78;1726972;82;21436;-86
2021/04/03 19:59:00;;;;;;;49.20;16.25;;;;;;;2.32;100.00;100654.76;1731008;82;21211;-86
2021/04/03 20:01:28;;;;;;;43.83;16.25;;;;;;;2.28;100.00;100663.04;1716964;82;21110;-86
2021/04/03 20:03:58;;;;;;;48.80;17.98;;;;;;;2.27;100.00;100661.36;1727525;82;21143;-86
2021/04/03 20:06:26;;;;;;;38.70;16.52;;;;;;;2.31;100.00;100662.93;1698453;83;21188;-86
2021/04/03 20:08:54;;;;;;;33.85;14.30;;;;;;;2.31;100.00;100665.50;1728700;83;21271;-86
2021/04/03 20:11:22;;;;;;;25.60;13.40;;;;;;;2.32;100.00;100674.03;1716301;82;21168;-86
2021/04/03 20:13:52;;;;;;;25.75;13.93;;;;;;;2.31;100.00;100680.06;1729737;82;21177;-86
2021/04/03 20:16:21;;;;;;;20.65;13.40;;;;;;;2.29;100.00;100683.14;1729220;81;21076;-86
2021/04/03 20:18:50;;;;;;;19.95;13.43;;;;;;;2.28;100.00;100683.59;1728919;83;21206;-86
2021/04/03 20:21:19;;;;;;;17.07;12.00;;;;;;;2.29;100.00;100690.84;1729018;83;22359;-86
2021/04/03 20:26:31;;;;;;;21.80;14.60;;;;;;;2.32;100.00;100689.45;1699783;84;21491;-86
2021/04/03 20:29:00;;;;;;;22.70;15.95;;;;;;;2.33;100.00;100694.98;1699972;84;21213;-86
2021/04/03 20:31:28;;;;;;;22.32;15.68;;;;;;;2.32;100.00;100688.98;1697458;82;21226;-86
2021/04/03 20:33:58;;;;;;;24.47;16.25;;;;;;;2.35;100.00;100693.20;1720932;82;21266;-86
2021/04/03 20:36:26;;;;;;;21.85;16.23;;;;;;;2.38;100.00;100693.06;1722740;82;21170;-86
2021/04/03 20:38:54;;;;;;;25.50;16.42;;;;;;;2.41;100.00;100690.38;1691415;83;21566;-86
2021/04/03 20:41:22;;;;;;;31.95;18.52;;;;;;;2.46;100.00;100700.02;1730002;82;21161;-86
2021/04/03 20:43:52;;;;;;;32.35;20.25;;;;;;;2.48;100.00;100699.52;1729890;82;21202;-86
2021/04/03 20:46:21;;;;;;;26.80;17.37;;;;;;;2.50;100.00;100693.02;1722269;82;21390;-86
2021/04/03 20:48:50;;;;;;;25.70;17.67;;;;;;;2.51;100.00;100694.27;1723523;82;21198;-86
2021/04/03 20:51:21;;;;;;;27.80;19.00;;;;;;;2.52;100.00;100689.94;1728904;82;21096;-86
2021/04/03 20:53:51;;;;;;;27.30;17.30;;;;;;;2.53;100.00;100689.05;1721443;83;21178;-86
2021/04/03 20:56:19;;;;;;;23.27;17.27;;;;;;;2.52;100.00;100680.48;1700374;82;21161;-86
2021/04/03 20:58:48;;;;;;;27.13;17.32;;;;;;;2.51;100.00;100680.13;1724492;82;21630;-86
2021/04/03 21:01:46;;;;;;;24.02;17.15;;;;;;;2.52;100.00;100679.20;1730652;82;21590;-86
2021/04/03 21:04:14;;;;;;;22.58;15.95;;;;;;;2.53;100.00;100681.34;1724303;82;21202;-86
2021/04/03 21:06:43;;;;;;;25.30;17.17;;;;;;;2.53;100.00;100686.02;1729729;82;21135;-86
2021/04/03 21:09:11;;;;;;;25.12;16.12;;;;;;;2.53;100.00;100686.02;1729144;81;21484;-86
2021/04/03 21:11:41;;;;;;;26.77;18.70;;;;;;;2.56;100.00;100683.80;1728301;83;21206;-86
2021/04/03 21:14:10;;;;;;;26.20;19.10;;;;;;;2.59;100.00;100682.37;1728917;83;21215;-86
2021/04/03 21:16:40;;;;;;;29.95;20.88;;;;;;;2.61;100.00;100680.58;1716294;82;21564;-86
2021/04/03 21:19:08;;;;;;;28.92;21.23;;;;;;;2.63;100.00;100675.36;1729095;83;21146;-86
2021/04/03 21:21:37;;;;;;;31.62;21.73;;;;;;;2.62;100.00;100669.83;1716544;83;21155;-86
2021/04/03 21:24:07;;;;;;;29.77;20.45;;;;;;;2.61;100.00;100668.16;1728977;83;21439;-86
2021/04/03 21:26:35;;;;;;;27.65;19.75;;;;;;;2.57;100.00;100670.02;1729169;83;21147;-86
2021/04/03 21:29:07;;;;;;;32.85;22.00;;;;;;;2.54;100.00;100676.59;1716493;83;21136;-86
2021/04/03 21:31:36;;;;;;;30.95;21.20;;;;;;;2.52;100.00;100675.80;1724973;83;21900;-86
2021/04/03 21:34:04;;;;;;;28.10;19.67;;;;;;;2.48;100.00;100678.13;1716417;83;21186;-86
2021/04/03 21:36:33;;;;;;;28.90;21.40;;;;;;;2.37;100.00;100678.53;1728932;83;21216;-86
2021/04/03 21:39:04;;;;;;;31.23;22.15;;;;;;;2.24;100.00;100678.20;1716524;83;21227;-86
2021/04/03 21:41:32;;;;;;;32.80;24.32;;;;;;;2.16;100.00;100673.81;1729286;83;21191;-86
2021/04/03 21:44:01;;;;;;;29.77;21.35;;;;;;;2.09;100.00;100678.34;1729076;83;21175;-86
2021/04/03 21:46:29;;;;;;;29.07;18.37;;;;;;;2.06;100.00;100686.16;1728964;83;21151;-86
2021/04/03 21:48:58;;;;;;;27.85;20.17;;;;;;;2.04;100.00;100684.13;1729154;83;21454;-86
2021/04/03 21:51:26;;;;;;;28.15;17.80;;;;;;;2.04;100.00;100684.13;1729012;83;21206;-86
2021/04/03 21:53:54;;;;;;;23.70;17.50;;;;;;;2.04;100.00;100689.25;1729036;83;21119;-86
2021/04/03 21:56:23;;;;;;;21.37;15.83;;;;;;;2.03;100.00;100692.72;1729297;83;21198;-86
2021/04/03 21:58:51;;;;;;;26.50;16.65;;;;;;;2.04;100.00;100694.39;1729183;83;21143;-86
2021/04/03 22:01:19;;;;;;;22.98;15.30;;;;;;;2.03;100.00;100697.86;1729203;83;21507;-86
2021/04/03 22:03:48;;;;;;;21.00;14.53;;;;;;;2.00;100.00;100696.67;1729112;83;21103;-86
2021/04/03 22:06:17;;;;;;;19.73;14.47;;;;;;;1.95;100.00;100703.27;1729123;83;21178;-86
2021/04/03 22:08:46;;;;;;;18.45;12.98;;;;;;;1.94;100.00;100703.33;1729262;83;21218;-86
2021/04/03 22:11:18;;;;;;;18.23;13.83;;;;;;;1.88;100.00;100700.08;1729198;83;21195;-86
2021/04/03 22:13:44;;;;;;;23.45;15.68;;;;;;;1.86;100.00;100699.75;1725825;81;22331;-86
2021/04/03 22:16:12;;;;;;;37.30;23.07;;;;;;;1.82;100.00;100706.73;1716331;83;21225;-86
2021/04/03 22:18:42;;;;;;;36.83;22.55;;;;;;;1.80;100.00;100705.13;1729152;83;21273;-86
2021/04/03 22:21:10;;;;;;;34.48;23.05;;;;;;;1.73;100.00;100704.08;1729085;83;21098;-86
2021/04/03 22:23:38;;;;;;;32.85;22.45;;;;;;;1.64;100.00;100702.30;1716469;83;21082;-86
2021/04/03 22:26:06;;;;;;;34.78;23.65;;;;;;;1.52;100.00;100703.12;1729060;83;22124;-86
2021/04/03 22:28:35;;;;;;;37.15;22.25;;;;;;;1.45;100.00;100705.52;1729021;83;21201;-86
2021/04/03 22:31:04;;;;;;;40.10;24.55;;;;;;;1.38;100.00;100707.91;1728741;83;21188;-86
2021/04/03 22:33:33;;;;;;;38.10;25.82;;;;;;;1.30;100.00;100709.91;1706771;82;21211;-87
2021/04/03 22:36:01;;;;;;;34.75;22.42;;;;;;;1.23;100.00;100713.12;1731031;82;21127;-86
2021/04/03 22:38:29;;;;;;;31.35;21.30;;;;;;;1.16;100.00;100712.95;1729002;83;21476;-87
2021/04/03 22:40:58;;;;;;;23.45;17.48;;;;;;;1.09;100.00;100715.73;1704230;82;21217;-87
2021/04/03 22:43:26;;;;;;;23.60;16.12;;;;;;;1.04;100.00;100717.59;1729077;81;21186;-87
2021/04/03 22:45:55;;;;;;;22.37;16.02;;;;;;;0.98;100.00;100715.23;1728838;82;21251;-86
2021/04/03 22:48:24;;;;;;;26.40;16.70;;;;;;;0.92;100.00;100716.27;1728839;83;21155;-86
2021/04/03 22:50:53;;;;;;;23.10;15.30;;;;;;;0.86;100.00;100716.94;1728948;83;21382;-86
2021/04/03 22:53:24;;;;;;;23.10;15.40;;;;;;;0.79;100.00;100725.27;1716199;83;21116;-87
2021/04/03 22:55:52;;;;;;;21.57;14.35;;;;;;;0.73;100.00;100724.19;1724646;83;21112;-86
2021/04/03 22:58:21;;;;;;;23.67;14.83;;;;;;;0.70;100.00;100720.01;1728879;83;21159;-86
2021/04/03 23:00:50;;;;;;;23.05;14.43;;;;;;;0.66;100.00;100719.70;1728709;83;21552;-87